TAF and METAR

METAR for Chania International Airport

LGSA 192050Z 00000KT 9999 FEW020 20/19 Q1018
Report created 19. okt 22:50
wind 0 knots from N (000°) visibility > 10km some clouds (~25% cover) at 2000 feet Temperature 20° with dewpoint at 19° (Humidity 93.98%) Pressure 1018 hPa

TAF for Chania International Airport

TAF LGSA 191700Z 1918/2018 07008KT 9999 SCT016 PROB30 2001/2006 5000 BR SCT010
Report created 19. okt 19:00

between 19. okt 20:00 - 20. okt 20:00

wind 8 knots from ENE (070°) visibility > 10km scattered clouds (~50% cover) at 1600 feet

probably (~30%) between 20. okt 03:00 - 20. okt 08:00

visibility 5000 meters mist scattered clouds (~50% cover) at 1000 feet
Chania International Airport in Greece at 135m

Latest 5 airports